Formosa, Argentina
Current Conditions -  °F | °C
As of 5:00 PM on Friday 24 Oct 2014 (Local Time) from SGAS Reporting Station
Scattered Clouds Scattered Clouds  
Wind Chill: 95°   Ceiling: Unl
Heat Index: 95°   Visibility: 6mi
Dew Point: 52°   Wind: 9mph
Humidity: 23%   Direction: 170°S
Pressure: 29.77"   Gusts: NA
Location:  26.18°S, 58.18°W
Report Text: SGAS 242000Z 17008KT 130V210 9999 SCT033 35/11 Q1008
Loading
Personal Weather Stations






























Interactive Weather Map
Tropical Storm Tracking
New forecast layout! Learn more

10-Day Weather Forecast

Advertisements
Track Severe Weather on mobile